Time;durP1;ratioP1;P1;durP2;ratioP2;P2;SDS_P1;SDS_P2;PMS_P1;PMS_P2;Temp;Humidity;BMP_temperature;BMP_pressure;BME280_temperature;BME280_humidity;BME280_pressure;Samples;Min_cycle;Max_cycle;Signal;HPM_P1;HPM_P2
2021/07/06 00:03:55;;;;;;;2.87;2.60;;;;;;;16.25;100.00;98562.25;10501475;28;20252;-82
2021/07/06 00:09:14;;;;;;;3.60;2.77;;;;;;;16.20;100.00;98554.53;10501611;28;20211;-81
2021/07/06 00:14:33;;;;;;;5.20;4.70;;;;;;;16.42;100.00;98552.56;10503118;28;20570;-82
2021/07/06 00:19:52;;;;;;;4.33;3.43;;;;;;;16.24;100.00;98555.16;10501787;28;20652;-83
2021/07/06 00:25:12;;;;;;;3.30;3.10;;;;;;;16.04;100.00;98552.66;10502831;28;20201;-82
2021/07/06 00:30:31;;;;;;;3.40;3.10;;;;;;;16.02;100.00;98554.34;10501605;28;20265;-83
2021/07/06 00:35:50;;;;;;;2.90;2.70;;;;;;;16.12;100.00;98553.97;10499349;28;20226;-82
2021/07/06 00:41:09;;;;;;;4.87;2.30;;;;;;;15.90;100.00;98557.94;10501867;28;20187;-81
2021/07/06 00:46:28;;;;;;;2.97;2.77;;;;;;;15.80;100.00;98547.16;10501844;28;20202;-81
2021/07/06 00:51:47;;;;;;;3.20;2.97;;;;;;;15.81;100.00;98549.53;10499665;28;20171;-82
2021/07/06 00:57:07;;;;;;;3.30;3.10;;;;;;;15.67;100.00;98554.75;10500779;28;20253;-82
2021/07/06 01:02:26;;;;;;;4.90;2.53;;;;;;;15.60;100.00;98555.75;10500765;28;20673;-82
2021/07/06 01:07:46;;;;;;;2.60;2.40;;;;;;;15.66;100.00;98553.19;10499267;28;20291;-82
2021/07/06 01:13:06;;;;;;;6.87;2.60;;;;;;;15.54;100.00;98548.44;10500215;28;20178;-82
2021/07/06 01:18:25;;;;;;;3.33;2.70;;;;;;;15.45;100.00;98549.09;10498637;28;20182;-83
2021/07/06 01:23:45;;;;;;;3.63;2.83;;;;;;;15.37;100.00;98531.16;10499791;28;20171;-84
2021/07/06 01:29:03;;;;;;;2.77;2.57;;;;;;;15.37;100.00;98524.84;10497738;28;20213;-82
2021/07/06 01:34:22;;;;;;;3.00;2.80;;;;;;;15.32;100.00;98523.41;10498732;28;20218;-82
2021/07/06 01:39:42;;;;;;;2.07;1.97;;;;;;;15.27;100.00;98518.38;10498604;28;20561;-85
2021/07/06 01:45:06;;;;;;;2.27;2.17;;;;;;;15.26;100.00;98514.09;10499789;28;20159;-82
2021/07/06 01:50:31;;;;;;;10.93;3.13;;;;;;;15.14;100.00;98512.06;10498172;28;20643;-84
2021/07/06 01:55:52;;;;;;;7.53;3.00;;;;;;;15.13;100.00;98515.28;10499064;28;20652;-83
2021/07/06 02:01:11;;;;;;;4.50;3.37;;;;;;;15.07;100.00;98496.88;10498087;28;20568;-82
2021/07/06 02:06:30;;;;;;;2.30;2.20;;;;;;;15.05;100.00;98493.75;10496396;28;20194;-82
2021/07/06 02:11:49;;;;;;;2.93;2.73;;;;;;;14.96;100.00;98488.09;10498841;28;20175;-84
2021/07/06 02:17:11;;;;;;;3.07;2.77;;;;;;;14.84;100.00;98494.41;10497992;28;20250;-85
2021/07/06 02:22:30;;;;;;;2.30;2.10;;;;;;;14.79;100.00;98483.88;10496167;28;20174;-83
2021/07/06 02:27:50;;;;;;;3.80;2.90;;;;;;;14.77;100.00;98491.88;10496603;28;20771;-83
2021/07/06 02:33:10;;;;;;;2.90;2.23;;;;;;;14.72;100.00;98484.88;10495717;28;20586;-85
2021/07/06 02:38:29;;;;;;;2.83;2.53;;;;;;;14.72;100.00;98486.84;10497031;28;20186;-84
2021/07/06 02:43:48;;;;;;;3.33;3.10;;;;;;;14.60;100.00;98479.31;10497955;28;20538;-83
2021/07/06 02:49:07;;;;;;;3.23;2.93;;;;;;;14.54;100.00;98478.28;10496125;28;20198;-82
2021/07/06 02:54:26;;;;;;;3.37;3.07;;;;;;;14.58;100.00;98465.13;10497267;28;20633;-81
2021/07/06 02:59:45;;;;;;;2.93;2.73;;;;;;;14.47;100.00;98468.22;10496390;28;20600;-83
2021/07/06 03:05:06;;;;;;;3.10;2.60;;;;;;;14.43;100.00;98469.53;10496038;28;20249;-82
2021/07/06 03:10:32;;;;;;;3.03;2.30;;;;;;;14.41;100.00;98467.22;10497342;28;20272;-82
2021/07/06 03:15:51;;;;;;;5.80;2.30;;;;;;;14.42;100.00;98473.53;10497222;28;20187;-81
2021/07/06 03:21:10;;;;;;;4.70;3.00;;;;;;;14.35;100.00;98479.25;10494980;28;20174;-82
2021/07/06 03:26:29;;;;;;;4.47;2.50;;;;;;;14.41;100.00;98474.72;10501330;28;20206;-81
2021/07/06 03:31:48;;;;;;;3.37;3.10;;;;;;;14.53;100.00;98479.53;10505247;28;20637;-82
2021/07/06 03:37:08;;;;;;;3.10;2.90;;;;;;;14.34;100.00;98474.16;10502083;28;20226;-82
2021/07/06 03:42:27;;;;;;;3.27;2.97;;;;;;;14.31;100.00;98478.56;10503771;28;20565;-83
2021/07/06 03:47:46;;;;;;;4.03;2.87;;;;;;;14.30;100.00;98479.78;10503102;28;20218;-84
2021/07/06 03:53:07;;;;;;;4.70;2.43;;;;;;;14.31;100.00;98486.88;10503038;28;20265;-84
2021/07/06 03:58:25;;;;;;;3.43;3.20;;;;;;;14.34;100.00;98481.22;10503260;28;20632;-84
2021/07/06 04:03:44;;;;;;;3.30;3.10;;;;;;;14.42;100.00;98473.53;10501315;28;20178;-83
2021/07/06 04:09:03;;;;;;;3.17;2.97;;;;;;;14.46;100.00;98463.91;10502001;28;20206;-82
2021/07/06 04:14:22;;;;;;;3.80;3.40;;;;;;;14.51;100.00;98460.56;10503237;28;20170;-83
2021/07/06 04:19:41;;;;;;;3.30;3.07;;;;;;;14.63;100.00;98470.91;10502012;28;20552;-83
2021/07/06 04:25:00;;;;;;;4.40;3.37;;;;;;;14.70;100.00;98458.84;10502597;28;20170;-82
2021/07/06 04:30:19;;;;;;;6.03;3.80;;;;;;;14.86;100.00;98469.84;10502688;28;20625;-82
2021/07/06 04:35:38;;;;;;;5.17;4.50;;;;;;;14.98;100.00;98466.28;10500112;28;20226;-83
2021/07/06 04:40:57;;;;;;;10.03;3.90;;;;;;;15.09;100.00;98461.97;10502271;28;20167;-83
2021/07/06 04:46:16;;;;;;;6.40;4.90;;;;;;;15.20;100.00;98449.31;10502089;28;20198;-84
2021/07/06 04:51:36;;;;;;;8.17;4.07;;;;;;;15.34;100.00;98448.91;10499698;28;20646;-84
2021/07/06 04:56:55;;;;;;;4.87;4.57;;;;;;;15.62;100.00;98466.59;10500752;28;20190;-84
2021/07/06 05:02:14;;;;;;;10.97;4.27;;;;;;;15.86;100.00;98457.41;10501017;28;20617;-81
2021/07/06 05:07:34;;;;;;;5.50;4.60;;;;;;;16.23;100.00;98445.41;10498410;28;20218;-85
2021/07/06 05:12:53;;;;;;;5.70;4.83;;;;;;;16.57;100.00;98445.31;10481968;28;20692;-83
2021/07/06 05:18:12;;;;;;;6.37;4.90;;;;;;;16.90;100.00;98447.97;10499765;28;20175;-82
2021/07/06 05:23:31;;;;;;;6.03;5.50;;;;;;;17.19;100.00;98451.19;10500525;28;20427;-85
2021/07/06 05:28:50;;;;;;;5.30;4.90;;;;;;;17.43;100.00;98448.66;10499089;28;20259;-84
2021/07/06 05:34:09;;;;;;;5.97;5.23;;;;;;;17.66;100.00;98451.66;10498969;28;20641;-83
2021/07/06 05:39:29;;;;;;;5.43;4.57;;;;;;;17.91;100.00;98465.28;10499870;28;20182;-84
2021/07/06 05:44:49;;;;;;;5.47;4.83;;;;;;;18.02;100.00;98446.09;10499868;28;20170;-81
2021/07/06 05:50:12;;;;;;;5.63;4.90;;;;;;;18.24;100.00;98438.41;10496549;28;20210;-81
2021/07/06 05:55:31;;;;;;;6.40;5.30;;;;;;;18.49;100.00;98436.06;10498049;28;20174;-81
2021/07/06 06:00:52;;;;;;;7.10;5.10;;;;;;;18.72;100.00;98438.94;10497964;28;20202;-82
2021/07/06 06:06:10;;;;;;;5.43;4.50;;;;;;;19.04;100.00;98435.44;10496511;28;20289;-83
2021/07/06 06:11:30;;;;;;;4.93;4.50;;;;;;;19.42;100.00;98449.53;10497182;28;20198;-81
2021/07/06 06:16:49;;;;;;;4.93;4.43;;;;;;;19.75;100.00;98441.88;10496237;28;20648;-82
2021/07/06 06:22:08;;;;;;;3.63;3.33;;;;;;;20.10;100.00;98441.66;10495962;28;20178;-80
2021/07/06 06:27:28;;;;;;;5.13;3.67;;;;;;;20.58;100.00;98426.31;10496686;28;20233;-84
2021/07/06 06:32:47;;;;;;;5.77;3.67;;;;;;;20.86;100.00;98398.84;10498122;28;20253;-80
2021/07/06 06:38:06;;;;;;;5.23;4.27;;;;;;;21.23;100.00;98414.69;10496713;28;20641;-82
2021/07/06 06:43:25;;;;;;;4.90;3.47;;;;;;;21.68;100.00;98421.22;10496922;28;20174;-82
2021/07/06 06:48:44;;;;;;;5.43;3.47;;;;;;;22.16;100.00;98413.16;10486435;28;20195;-83
2021/07/06 06:54:03;;;;;;;4.03;3.13;;;;;;;22.11;100.00;98409.03;10466162;28;20269;-83
2021/07/06 06:59:22;;;;;;;4.30;2.63;;;;;;;22.82;100.00;98409.75;10496669;28;20237;-82
2021/07/06 07:04:41;;;;;;;8.23;3.10;;;;;;;23.69;100.00;98411.69;10494699;28;20536;-82
2021/07/06 07:10:00;;;;;;;3.37;2.93;;;;;;;23.42;100.00;98427.06;10493114;28;20210;-82
2021/07/06 07:15:20;;;;;;;3.07;2.87;;;;;;;23.26;100.00;98435.41;10490282;28;20277;-82
2021/07/06 07:20:39;;;;;;;3.80;3.03;;;;;;;23.45;100.00;98417.66;10490152;28;20182;-82
2021/07/06 07:25:58;;;;;;;2.77;2.50;;;;;;;24.11;100.00;98415.22;10467798;28;20676;-82
2021/07/06 07:31:18;;;;;;;2.53;2.33;;;;;;;24.60;99.71;98412.53;10496785;28;20535;-84
2021/07/06 07:36:39;;;;;;;4.30;2.63;;;;;;;25.19;98.76;98384.94;10494705;28;20681;-81
2021/07/06 07:41:59;;;;;;;4.70;2.70;;;;;;;25.85;91.11;98402.47;10495699;28;20170;-82
2021/07/06 07:47:18;;;;;;;6.70;2.60;;;;;;;26.10;86.53;98373.94;10496307;28;20653;-84
2021/07/06 07:52:37;;;;;;;5.90;2.57;;;;;;;26.41;84.97;98379.16;10494421;28;20175;-81
2021/07/06 07:57:57;;;;;;;9.50;2.70;;;;;;;27.09;83.13;98368.41;10497577;28;20241;-79
2021/07/06 08:03:16;;;;;;;2.50;2.07;;;;;;;27.76;65.74;98375.66;10494843;28;20202;-80
2021/07/06 08:08:35;;;;;;;2.03;1.93;;;;;;;27.94;63.16;98348.75;10494901;28;20289;-80
2021/07/06 08:13:54;;;;;;;2.30;2.10;;;;;;;28.09;63.23;98361.13;10499890;28;20171;-81
2021/07/06 08:19:14;;;;;;;3.53;1.90;;;;;;;28.56;57.50;98339.63;10500773;28;20250;-80
2021/07/06 08:24:34;;;;;;;3.10;2.07;;;;;;;29.09;59.55;98344.94;10500983;28;20198;-80
2021/07/06 08:29:53;;;;;;;2.70;2.33;;;;;;;29.63;58.25;98333.91;10501218;28;20672;-80
2021/07/06 08:35:12;;;;;;;3.33;1.83;;;;;;;29.96;51.71;98350.28;10501061;28;20293;-80
2021/07/06 08:40:32;;;;;;;498.03;446.43;;;;;;;29.87;55.24;98351.44;10499222;28;20187;-80
2021/07/06 08:45:50;;;;;;;3.80;2.00;;;;;;;30.80;54.05;98333.09;10500376;28;20186;-82
2021/07/06 08:51:10;;;;;;;1.93;1.83;;;;;;;30.20;52.47;98347.94;10499390;28;20209;-79
2021/07/06 08:56:29;;;;;;;2.30;2.20;;;;;;;29.07;53.52;98333.41;10501837;28;20242;-83
2021/07/06 09:01:51;;;;;;;4.20;2.30;;;;;;;28.69;56.38;98314.22;10501653;28;20171;-80
2021/07/06 09:07:11;;;;;;;2.30;2.10;;;;;;;28.54;55.89;98317.53;10498472;28;20210;-81
2021/07/06 09:12:35;;;;;;;2.23;2.13;;;;;;;28.17;58.66;98344.31;10501032;28;20258;-79
2021/07/06 09:18:15;;;;;;;2.77;2.30;;;;;;;27.87;59.44;98352.94;10500086;28;20179;-80
2021/07/06 09:23:40;;;;;;;2.33;2.13;;;;;;;27.32;62.60;98340.72;10500163;28;20191;-80
2021/07/06 09:29:00;;;;;;;2.40;2.20;;;;;;;27.03;64.42;98353.56;10499170;28;20206;-81
2021/07/06 09:34:19;;;;;;;2.13;1.83;;;;;;;26.76;64.51;98363.00;10497598;28;20218;-82
2021/07/06 09:39:40;;;;;;;2.20;2.00;;;;;;;26.52;68.49;98379.09;10500012;28;20175;-79
2021/07/06 09:44:58;;;;;;;3.90;1.93;;;;;;;26.14;68.81;98384.94;10499778;28;20174;-80
2021/07/06 09:50:17;;;;;;;2.00;1.90;;;;;;;25.62;72.08;98406.63;10497462;28;20210;-80
2021/07/06 09:55:38;;;;;;;2.57;1.93;;;;;;;25.38;74.27;98412.06;10497189;28;20182;-79
2021/07/06 10:01:04;;;;;;;1.90;1.80;;;;;;;25.44;76.69;98421.28;10499184;28;20532;-80
2021/07/06 10:06:25;;;;;;;3.00;2.17;;;;;;;24.96;80.92;98434.81;10497828;28;20656;-80
2021/07/06 10:11:44;;;;;;;2.40;2.20;;;;;;;24.86;82.22;98486.25;10498876;28;20182;-81
2021/07/06 10:17:06;;;;;;;3.57;2.40;;;;;;;23.96;91.81;98513.00;10497754;28;20174;-81
2021/07/06 10:22:24;;;;;;;2.97;2.20;;;;;;;22.55;100.00;98544.88;10496877;28;20186;-80
2021/07/06 10:27:51;;;;;;;2.10;1.90;;;;;;;21.65;100.00;98580.25;10497536;28;20202;-80
2021/07/06 10:33:14;;;;;;;2.47;2.27;;;;;;;21.60;100.00;98580.91;10495135;28;20219;-78
2021/07/06 10:38:33;;;;;;;2.73;2.53;;;;;;;21.59;100.00;98599.75;10496504;28;20179;-79
2021/07/06 10:43:54;;;;;;;2.50;2.17;;;;;;;21.55;100.00;98615.94;10497927;28;20212;-78
2021/07/06 10:49:28;;;;;;;3.50;3.20;;;;;;;21.33;100.00;98611.97;10496189;28;20206;-82
2021/07/06 10:54:47;;;;;;;7.43;3.20;;;;;;;21.32;100.00;98621.63;10497130;28;20187;-80
2021/07/06 11:00:10;;;;;;;4.60;2.70;;;;;;;21.11;100.00;98611.56;10496007;28;20555;-82
2021/07/06 11:05:32;;;;;;;2.23;2.13;;;;;;;21.04;100.00;98606.34;10495383;28;20174;-80
2021/07/06 11:10:51;;;;;;;2.40;2.20;;;;;;;20.95;100.00;98586.84;10455942;28;20175;-81
2021/07/06 11:16:36;;;;;;;2.30;2.10;;;;;;;20.70;100.00;98565.00;10469022;28;20176;-79
2021/07/06 11:22:09;;;;;;;2.57;2.33;;;;;;;20.62;100.00;98541.47;10483088;28;20182;-79
2021/07/06 11:27:54;;;;;;;3.00;2.80;;;;;;;20.76;100.00;98512.78;10496781;28;20202;-79
2021/07/06 11:33:37;;;;;;;2.33;2.07;;;;;;;21.05;100.00;98499.59;10495477;28;20222;-79
2021/07/06 11:38:57;;;;;;;3.00;2.33;;;;;;;21.30;100.00;98495.44;10495099;28;20538;-79
2021/07/06 11:44:19;;;;;;;2.00;1.80;;;;;;;20.98;100.00;98491.59;10496509;28;20178;-77
2021/07/06 11:49:39;;;;;;;2.93;2.50;;;;;;;21.06;100.00;98475.19;10502498;28;20238;-79
2021/07/06 11:54:58;;;;;;;1.60;1.50;;;;;;;21.43;100.00;98482.66;10503676;28;20183;-78
2021/07/06 12:00:19;;;;;;;1.70;1.60;;;;;;;21.70;100.00;98502.69;10503910;28;20536;-78
2021/07/06 12:05:38;;;;;;;1.73;1.63;;;;;;;21.81;100.00;98508.44;10500738;28;20182;-79
2021/07/06 12:11:12;;;;;;;2.03;1.30;;;;;;;21.56;100.00;98515.97;10501754;28;20183;-78
2021/07/06 12:16:34;;;;;;;1.60;1.30;;;;;;;21.46;100.00;98514.50;10502428;28;20621;-78
2021/07/06 12:21:54;;;;;;;2.90;1.30;;;;;;;21.43;100.00;98533.03;10501065;28;20214;-78
2021/07/06 12:27:17;;;;;;;4.90;1.30;;;;;;;21.87;100.00;98551.31;10502847;28;20236;-78
2021/07/06 12:32:36;;;;;;;1.40;1.30;;;;;;;22.30;100.00;98553.19;10502273;28;20187;-80
2021/07/06 12:38:04;;;;;;;1.70;1.60;;;;;;;22.92;100.00;98568.22;10501374;28;20660;-80
2021/07/06 12:43:23;;;;;;;1.70;1.30;;;;;;;22.96;100.00;98584.81;10502423;28;20179;-78
2021/07/06 12:48:46;;;;;;;2.30;1.57;;;;;;;22.51;100.00;98588.38;10499829;28;20700;-82
2021/07/06 12:54:06;;;;;;;1.47;1.20;;;;;;;22.34;100.00;98623.84;10500284;28;20850;-80
2021/07/06 12:59:29;;;;;;;1.40;1.30;;;;;;;21.83;100.00;98631.94;10459820;28;20235;-78
2021/07/06 13:04:54;;;;;;;2.20;1.57;;;;;;;21.75;100.00;98630.03;10499811;28;20621;-80
2021/07/06 13:10:18;;;;;;;1.60;1.50;;;;;;;21.66;100.00;98634.97;10500827;28;20203;-82
2021/07/06 13:15:48;;;;;;;1.43;1.33;;;;;;;21.77;100.00;98647.09;10501190;28;20581;-79
2021/07/06 13:21:10;;;;;;;1.73;1.63;;;;;;;21.77;100.00;98656.28;10499413;28;20175;-80
2021/07/06 13:26:30;;;;;;;1.80;1.70;;;;;;;21.61;100.00;98669.25;10499698;28;20214;-80
2021/07/06 13:31:49;;;;;;;3.57;2.20;;;;;;;21.47;100.00;98690.34;10500512;28;20254;-79
2021/07/06 13:37:10;;;;;;;2.10;2.00;;;;;;;21.50;100.00;98678.19;10497241;28;20714;-81
2021/07/06 13:42:29;;;;;;;2.00;1.90;;;;;;;21.31;100.00;98656.47;10500069;28;20186;-81
2021/07/06 13:47:52;;;;;;;2.17;1.23;;;;;;;21.25;100.00;98673.16;10498292;28;20668;-80
2021/07/06 13:53:14;;;;;;;6.93;1.67;;;;;;;21.12;100.00;98647.44;10499243;28;20182;-81
2021/07/06 13:58:32;;;;;;;1.80;1.70;;;;;;;21.31;100.00;98631.28;10499175;28;20199;-80
2021/07/06 14:03:52;;;;;;;3.10;1.63;;;;;;;21.43;100.00;98656.19;10498045;28;20175;-81
2021/07/06 14:09:10;;;;;;;2.10;1.70;;;;;;;21.26;100.00;98657.13;10498482;28;20218;-81
2021/07/06 14:14:30;;;;;;;3.47;1.90;;;;;;;21.19;100.00;98655.50;10497869;28;20171;-78
2021/07/06 14:19:48;;;;;;;4.53;2.13;;;;;;;21.13;100.00;98649.00;10497020;28;20689;-80
2021/07/06 14:25:09;;;;;;;2.00;1.90;;;;;;;21.30;100.00;98646.53;10497731;28;20190;-82
2021/07/06 14:30:30;;;;;;;2.90;1.57;;;;;;;21.12;100.00;98671.88;10496886;28;20202;-81
2021/07/06 14:35:49;;;;;;;1.73;1.63;;;;;;;21.07;100.00;98684.50;10496160;28;20222;-82
2021/07/06 14:41:08;;;;;;;5.13;1.70;;;;;;;20.74;100.00;98677.41;10497943;28;20178;-82
2021/07/06 14:46:29;;;;;;;1.67;1.57;;;;;;;20.82;100.00;98684.22;10481301;28;20218;-83
2021/07/06 14:51:48;;;;;;;1.50;1.40;;;;;;;20.70;100.00;98674.03;10491280;28;20269;-81
2021/07/06 14:57:07;;;;;;;1.60;1.50;;;;;;;20.72;100.00;98702.28;10496755;28;20257;-85
2021/07/06 15:02:26;;;;;;;3.00;1.27;;;;;;;20.62;100.00;98686.03;10495889;28;20629;-85
2021/07/06 15:07:45;;;;;;;1.33;1.20;;;;;;;20.58;100.00;98675.03;10495311;28;20202;-85
2021/07/06 15:13:04;;;;;;;1.47;1.37;;;;;;;20.59;100.00;98698.97;10496725;28;20171;-85
2021/07/06 15:18:23;;;;;;;1.40;1.30;;;;;;;20.41;100.00;98685.09;10494635;28;20175;-86
2021/07/06 15:23:43;;;;;;;2.67;1.40;;;;;;;20.56;100.00;98668.34;10502608;28;20174;-82
2021/07/06 15:29:02;;;;;;;2.17;1.43;;;;;;;20.52;100.00;98678.97;10503655;28;20206;-83
2021/07/06 15:34:22;;;;;;;1.40;1.13;;;;;;;20.80;100.00;98655.22;10502272;28;20211;-87
2021/07/06 15:39:41;;;;;;;1.60;1.50;;;;;;;20.95;100.00;98648.38;10504851;28;20532;-84
2021/07/06 15:45:02;;;;;;;3.03;1.37;;;;;;;20.64;100.00;98653.56;10504518;28;20258;-84
2021/07/06 15:50:23;;;;;;;1.80;1.30;;;;;;;20.65;100.00;98657.91;10502402;28;20660;-86
2021/07/06 15:55:42;;;;;;;1.20;1.10;;;;;;;20.51;100.00;98646.66;10502513;28;20574;-84
2021/07/06 16:01:04;;;;;;;1.53;1.43;;;;;;;20.43;100.00;98660.25;10503626;28;20190;-82
2021/07/06 16:06:24;;;;;;;1.57;1.47;;;;;;;20.35;100.00;98639.50;10501260;28;20743;-86
2021/07/06 16:11:43;;;;;;;1.50;1.40;;;;;;;20.30;100.00;98634.53;10503325;28;20186;-84
2021/07/06 16:17:02;;;;;;;1.60;1.50;;;;;;;20.34;100.00;98677.06;10502353;28;20186;-84
2021/07/06 16:22:21;;;;;;;1.67;1.57;;;;;;;20.02;100.00;98682.63;10501844;28;20171;-83
2021/07/06 16:27:40;;;;;;;1.80;1.70;;;;;;;19.83;100.00;98675.53;10501789;28;20198;-84
2021/07/06 16:32:59;;;;;;;2.27;1.90;;;;;;;19.86;100.00;98665.47;10501211;28;20253;-82
2021/07/06 16:38:18;;;;;;;1.70;1.60;;;;;;;19.88;100.00;98646.19;10501636;28;20258;-83
2021/07/06 16:43:37;;;;;;;1.80;1.70;;;;;;;19.77;100.00;98637.56;10502424;28;20175;-84
2021/07/06 16:48:57;;;;;;;2.87;1.80;;;;;;;19.86;100.00;98668.25;10498660;28;20198;-85
2021/07/06 18:07:34;;;;;;;1.83;1.70;;;;;;;19.14;100.00;98707.44;10496973;28;20207;-83
2021/07/06 18:12:53;;;;;;;5.27;2.20;;;;;;;19.27;100.00;98708.06;10496463;28;20578;-83
2021/07/06 18:18:12;;;;;;;2.03;1.83;;;;;;;19.05;100.00;98701.06;10497396;28;20183;-82
2021/07/06 18:23:31;;;;;;;2.30;2.10;;;;;;;19.02;100.00;98702.75;10497116;28;20178;-82
2021/07/06 18:28:50;;;;;;;4.83;2.33;;;;;;;18.97;100.00;98697.81;10496755;28;20237;-84
2021/07/06 18:34:09;;;;;;;1.90;1.80;;;;;;;18.95;100.00;98710.66;10495680;28;20222;-83
2021/07/06 18:39:29;;;;;;;2.37;2.00;;;;;;;19.07;100.00;98735.59;10496590;28;20218;-82
2021/07/06 18:44:48;;;;;;;3.30;2.07;;;;;;;19.03;100.00;98723.03;10496187;28;20179;-83
2021/07/06 18:50:10;;;;;;;2.17;2.07;;;;;;;18.99;100.00;98739.16;10495474;28;20210;-83
2021/07/06 18:55:29;;;;;;;1.60;1.50;;;;;;;18.94;100.00;98748.16;10495989;28;20198;-83
2021/07/06 19:00:50;;;;;;;2.13;1.93;;;;;;;18.94;100.00;98750.94;10496094;28;20182;-84
2021/07/06 19:06:09;;;;;;;2.53;2.20;;;;;;;18.82;100.00;98780.47;10490296;28;20273;-83
2021/07/06 19:11:28;;;;;;;2.93;2.73;;;;;;;18.79;100.00;98795.34;10497218;28;20194;-83
2021/07/06 19:16:50;;;;;;;4.13;2.40;;;;;;;18.79;100.00;98806.50;10495950;28;21111;-85
2021/07/06 19:22:09;;;;;;;2.67;2.47;;;;;;;18.68;100.00;98806.13;10495006;28;20261;-86
2021/07/06 19:27:37;;;;;;;2.87;2.33;;;;;;;18.66;100.00;98811.38;10494145;28;20206;-82
2021/07/06 19:32:56;;;;;;;2.50;2.40;;;;;;;18.51;100.00;98810.41;10495144;28;20637;-82
2021/07/06 19:38:15;;;;;;;2.97;2.40;;;;;;;18.45;100.00;98836.56;10496534;28;20186;-81
2021/07/06 19:43:36;;;;;;;3.40;3.10;;;;;;;18.32;100.00;98841.44;10494945;28;20179;-82
2021/07/06 19:48:55;;;;;;;4.40;2.90;;;;;;;18.30;100.00;98854.25;10493210;28;20210;-82
2021/07/06 19:54:14;;;;;;;3.03;2.70;;;;;;;18.30;100.00;98870.97;10496331;28;20202;-81
2021/07/06 19:59:34;;;;;;;2.87;2.67;;;;;;;18.25;100.00;98885.50;10495726;28;20790;-83
2021/07/06 20:04:53;;;;;;;6.10;3.70;;;;;;;18.24;100.00;98889.50;10492912;28;20170;-81
2021/07/06 20:10:12;;;;;;;3.00;2.80;;;;;;;18.22;100.00;98894.75;10500974;28;20238;-81
2021/07/06 20:15:32;;;;;;;3.00;2.80;;;;;;;18.21;100.00;98880.06;10502370;28;20613;-80
2021/07/06 20:20:54;;;;;;;2.97;2.83;;;;;;;18.24;100.00;98870.00;10502114;28;20265;-81
2021/07/06 20:26:13;;;;;;;3.77;3.57;;;;;;;18.18;100.00;98860.66;10502139;28;20175;-81
2021/07/06 20:31:32;;;;;;;4.53;4.23;;;;;;;18.14;100.00;98841.28;10502748;28;20186;-84
2021/07/06 20:36:52;;;;;;;5.27;3.60;;;;;;;18.13;100.00;98839.75;10470597;28;20309;-81
2021/07/06 20:42:11;;;;;;;4.67;3.50;;;;;;;18.12;100.00;98843.78;10502133;28;20539;-81
2021/07/06 20:47:30;;;;;;;3.43;3.23;;;;;;;18.16;100.00;98840.84;10501488;28;20202;-81
2021/07/06 20:52:49;;;;;;;6.53;4.10;;;;;;;18.25;100.00;98857.66;10499386;28;20202;-83
2021/07/06 20:58:09;;;;;;;2.83;2.63;;;;;;;18.31;100.00;98875.31;10500341;28;20236;-82
2021/07/06 21:03:29;;;;;;;4.77;3.30;;;;;;;18.03;100.00;98873.53;10498535;28;20187;-82
2021/07/06 21:08:48;;;;;;;4.03;3.73;;;;;;;18.00;100.00;98869.66;10499563;28;20218;-83
2021/07/06 21:14:08;;;;;;;6.70;5.10;;;;;;;17.89;100.00;98876.84;10499971;28;20179;-83
2021/07/06 21:19:27;;;;;;;7.70;7.00;;;;;;;17.82;100.00;98871.53;10497600;28;20179;-85
2021/07/06 21:24:47;;;;;;;4.60;4.30;;;;;;;17.74;100.00;98879.34;10500701;28;20167;-86
2021/07/06 21:30:09;;;;;;;5.33;4.20;;;;;;;17.74;100.00;98904.41;10499103;28;20728;-82
2021/07/06 21:35:28;;;;;;;4.50;3.27;;;;;;;17.64;100.00;98902.00;10498635;28;20214;-83
2021/07/06 21:40:47;;;;;;;7.90;3.40;;;;;;;17.67;100.00;98913.00;10500014;28;20175;-85
2021/07/06 21:46:06;;;;;;;5.27;3.50;;;;;;;17.53;100.00;98929.38;10499056;28;20183;-83
2021/07/06 21:51:25;;;;;;;3.90;3.00;;;;;;;17.55;100.00;98945.66;10497943;28;20170;-81
2021/07/06 21:56:44;;;;;;;4.27;2.90;;;;;;;17.40;100.00;98930.66;10497955;28;20183;-83
2021/07/06 22:02:03;;;;;;;3.67;3.27;;;;;;;17.40;100.00;98908.41;10497563;28;20175;-83
2021/07/06 22:07:22;;;;;;;4.83;3.63;;;;;;;17.34;100.00;98922.09;10496802;28;20592;-83
2021/07/06 22:12:42;;;;;;;4.67;3.63;;;;;;;17.29;100.00;98928.22;10498081;28;20645;-82
2021/07/06 22:18:02;;;;;;;4.00;3.70;;;;;;;17.44;100.00;98932.09;10498533;28;20186;-82
2021/07/06 22:23:21;;;;;;;5.07;4.53;;;;;;;17.33;100.00;98959.47;10497486;28;20556;-83
2021/07/06 22:28:42;;;;;;;4.80;4.10;;;;;;;17.28;100.00;98950.91;10497001;28;20210;-84
2021/07/06 22:34:02;;;;;;;4.67;4.10;;;;;;;17.30;100.00;98945.69;10496052;28;20222;-83
2021/07/06 22:39:21;;;;;;;5.20;3.77;;;;;;;17.26;100.00;98920.75;10498049;28;20535;-83
2021/07/06 22:44:40;;;;;;;3.80;3.50;;;;;;;17.34;100.00;98924.88;10498128;28;20174;-84
2021/07/06 22:49:59;;;;;;;7.27;3.83;;;;;;;17.50;100.00;98949.78;10495903;28;20210;-84
2021/07/06 22:55:20;;;;;;;4.20;3.73;;;;;;;17.48;100.00;98952.22;10496669;28;20170;-83
2021/07/06 23:00:39;;;;;;;4.17;3.90;;;;;;;17.48;100.00;98948.69;10496623;28;20167;-82
2021/07/06 23:05:58;;;;;;;4.73;3.90;;;;;;;17.42;100.00;98945.69;10495306;28;20175;-83
2021/07/06 23:11:18;;;;;;;6.77;4.03;;;;;;;17.27;100.00;98944.56;10499311;28;20198;-83
2021/07/06 23:16:36;;;;;;;3.80;3.50;;;;;;;17.34;100.00;98935.22;10496592;28;20554;-83
2021/07/06 23:21:55;;;;;;;3.73;3.30;;;;;;;17.34;100.00;98949.13;10498468;28;20175;-83
2021/07/06 23:27:15;;;;;;;3.93;3.67;;;;;;;17.17;100.00;98956.00;10496995;28;20202;-83
2021/07/06 23:32:34;;;;;;;8.77;4.20;;;;;;;17.21;100.00;98951.88;10495842;28;20171;-85
2021/07/06 23:37:53;;;;;;;4.70;3.50;;;;;;;17.12;100.00;98971.22;10494689;28;20187;-85
2021/07/06 23:43:12;;;;;;;3.53;3.07;;;;;;;17.08;100.00;98959.47;10499974;28;20534;-85
2021/07/06 23:48:31;;;;;;;3.47;3.17;;;;;;;17.00;100.00;98947.00;10502939;28;20210;-85
2021/07/06 23:53:51;;;;;;;6.50;3.43;;;;;;;16.97;100.00;98959.00;10503589;28;20175;-85
2021/07/06 23:59:11;;;;;;;3.97;3.77;;;;;;;16.90;100.00;98939.78;10503181;28;20175;-85
